Home PIREPS Pireps

Flight BEL5560

  • Submitted By: Carl Hermans
  • Departure Airport: Tegel (EDDT)
  • Arrival Airport: Bruxelles National (EBBR)
  • Aircraft: A319-112 (OO-SSG)
  • Flight Time: 01.27
  • Date Submitted: 24/11/2017
  • Status: Accepted
Flight Details
Gross Revenue:
(113 load / € 86.00 per unit
€ 9,718.00
Fuel Cost:
(2208 fuel used @ 5.1 / unit)
€ 11,260.80

Additional Log Information:

View Log

Aircraft Used in flight is x737-800 Brussels Airlines
16:41 Brakes are On
16:42 Brakes are Released
16:43 Brakes are On
16:44 Brakes are Released
16:48 Brakes are On
16:48 Brakes are Released
16:48 Brakes are On
16:49 Brakes are Released
16:50 Landing Gear Up @ 152 Knots and 110 Feet
16:50 You Took off @ 163 Knots and Flaps at Position 3
Departure Weather
EDDT 241520Z 29006KT 9999 -RA FEW006 BKN060 08/07 Q1010 NOSIGrn
16:52 Below 10000 feet you are not allowed to go over 250 knots
16:53 Above FL100 you need to switch of the landing lights
18:03 Landing Gear Down @ 170 Knots and 2340 Feet
18:06 You Landed @ 140 Knots and with -450 Vertical Speed
Arrival Weather
EBBR 241650Z VRB01KT 9999 FEW025 07/04 Q1011 TEMPO 4000 SHRArn
18:07 Brakes are On
18:07 Brakes are Released
18:08 Brakes are On
18:08 Brussels Bel-Track1.0.1.2

Route Map

Corporate About Us Our Team Vacancies Information Fleet Route Network Rules and Regulations Operations Flight Schedules Event Center Tours Partners IVAO Vatsim Acars dev FSCB

fb Users Online Belgium Michael Bitu, Belgium Jan Roscam,
2 Pilot(s) and 118 Guest(s) Online
CMS by phpVMS - Design by Crazycreatives.com - Copyright © 2018 - Brussels Airlines Virtual